Hatfield, Minnesota
Current Conditions -  °F | °C
As of 8:34 PM on Saturday 22 Nov 2014 (Local Time) from KPQN Reporting Station
Haze Haze  
Wind Chill: -2°   Ceiling: Unl
Heat Index:   Visibility: 5mi
Dew Point:   Wind: 14mph
Humidity: 93%   Direction: 200°SSW
Pressure: 29.45"   Gusts: 21mph
Location:  44.066°N, 96.3302°W
Report Text: KPQN 230234Z AUTO 20012G18KT 5SM BR CLR 03/02 A2945 RMK AO2
Loading
Personal Weather Stations






























Interactive Weather Map New forecast layout! Learn more

10-Day Weather Forecast

Advertisements
Track Severe Weather on mobile